Time,TemperatureF,DewpointF,PressureIn,WindDirection,WindDirectionDegrees,WindSpeedMPH,WindSpeedGustMPH,Humidity,HourlyPrecipIn,Conditions,Clouds,dailyrainin,SoftwareType,DateUTC
2013-11-05 00:05:00,34.8,27.0,30.59,ESE,116,0.0,0.0,72,0.00,,,0.00,weatherlink.com 1.10,2013-11-05 05:05:00,
2013-11-05 00:20:00,34.6,26.0,30.60,ESE,116,0.0,0.0,70,0.00,,,0.00,weatherlink.com 1.10,2013-11-05 05:20:00,
2013-11-05 00:35:00,35.2,26.0,30.61,ESE,116,0.0,1.0,69,0.00,,,0.00,weatherlink.com 1.10,2013-11-05 05:35:00,
2013-11-05 00:50:00,35.2,27.0,30.60,ESE,116,0.0,0.0,72,0.00,,,0.00,weatherlink.com 1.10,2013-11-05 05:50:00,
2013-11-05 01:06:00,34.3,27.0,30.58,ESE,116,0.0,0.0,75,0.00,,,0.00,weatherlink.com 1.10,2013-11-05 06:06:00,
2013-11-05 01:21:00,34.3,28.0,30.59,ESE,116,0.0,0.0,77,0.00,,,0.00,weatherlink.com 1.10,2013-11-05 06:21:00,
2013-11-05 01:36:00,34.5,27.0,30.58,ESE,116,0.0,0.0,75,0.00,,,0.00,weatherlink.com 1.10,2013-11-05 06:36:00,
2013-11-05 01:51:00,34.6,28.0,30.58,ESE,116,0.0,0.0,76,0.00,,,0.00,weatherlink.com 1.10,2013-11-05 06:51:00,
2013-11-05 02:06:00,34.8,28.0,30.57,ESE,116,0.0,0.0,75,0.00,,,0.00,weatherlink.com 1.10,2013-11-05 07:06:00,
2013-11-05 02:21:00,34.8,27.0,30.58,ESE,116,0.0,0.0,74,0.00,,,0.00,weatherlink.com 1.10,2013-11-05 07:21:00,
2013-11-05 02:36:00,34.7,28.0,30.59,ESE,116,0.0,0.0,75,0.00,,,0.00,weatherlink.com 1.10,2013-11-05 07:36:00,
2013-11-05 02:51:00,34.6,27.0,30.58,ESE,116,0.0,0.0,74,0.00,,,0.00,weatherlink.com 1.10,2013-11-05 07:51:00,
2013-11-05 03:06:00,34.1,27.0,30.58,ESE,116,0.0,0.0,76,0.00,,,0.00,weatherlink.com 1.10,2013-11-05 08:06:00,
2013-11-05 03:21:00,33.8,26.0,30.58,ESE,116,0.0,0.0,74,0.00,,,0.00,weatherlink.com 1.10,2013-11-05 08:21:00,
2013-11-05 03:36:00,33.8,27.0,30.58,ESE,116,0.0,0.0,76,0.00,,,0.00,weatherlink.com 1.10,2013-11-05 08:36:00,
2013-11-05 03:51:00,33.7,27.0,30.58,ESE,116,0.0,0.0,76,0.00,,,0.00,weatherlink.com 1.10,2013-11-05 08:51:00,
2013-11-05 04:06:00,33.4,26.0,30.59,ESE,116,0.0,0.0,74,0.00,,,0.00,weatherlink.com 1.10,2013-11-05 09:06:00,
2013-11-05 04:21:00,33.7,28.0,30.58,ESE,116,0.0,0.0,79,0.00,,,0.00,weatherlink.com 1.10,2013-11-05 09:21:00,
2013-11-05 04:36:00,33.5,27.0,30.58,ESE,116,0.0,0.0,76,0.00,,,0.00,weatherlink.com 1.10,2013-11-05 09:36:00,
2013-11-05 04:51:00,33.2,26.0,30.59,ESE,116,0.0,0.0,76,0.00,,,0.00,weatherlink.com 1.10,2013-11-05 09:51:00,
2013-11-05 05:06:00,32.7,26.0,30.60,ESE,116,0.0,0.0,77,0.00,,,0.00,weatherlink.com 1.10,2013-11-05 10:06:00,
2013-11-05 05:21:00,32.8,26.0,30.59,ESE,116,0.0,0.0,77,0.00,,,0.00,weatherlink.com 1.10,2013-11-05 10:21:00,
2013-11-05 05:36:00,32.2,26.0,30.59,ESE,116,0.0,0.0,78,0.00,,,0.00,weatherlink.com 1.10,2013-11-05 10:36:00,
2013-11-05 05:51:00,32.3,27.0,30.60,ESE,116,0.0,0.0,80,0.00,,,0.00,weatherlink.com 1.10,2013-11-05 10:51:00,
2013-11-05 06:06:00,32.3,25.0,30.60,ESE,116,0.0,1.0,75,0.00,,,0.00,weatherlink.com 1.10,2013-11-05 11:06:00,
2013-11-05 06:21:00,32.5,26.0,30.60,ESE,116,0.0,0.0,77,0.00,,,0.00,weatherlink.com 1.10,2013-11-05 11:21:00,
2013-11-05 06:36:00,32.3,26.0,30.59,ESE,116,0.0,0.0,79,0.00,,,0.00,weatherlink.com 1.10,2013-11-05 11:36:00,
2013-11-05 06:51:00,32.1,28.0,30.60,ESE,116,0.0,2.0,83,0.00,,,0.00,weatherlink.com 1.10,2013-11-05 11:51:00,
2013-11-05 07:06:00,32.0,28.0,30.59,ESE,116,0.0,0.0,84,0.00,,,0.00,weatherlink.com 1.10,2013-11-05 12:06:00,
2013-11-05 07:21:00,32.1,27.0,30.59,ESE,116,0.0,2.0,81,0.00,,,0.00,weatherlink.com 1.10,2013-11-05 12:21:00,
2013-11-05 07:36:00,33.1,27.0,30.60,ESE,116,0.0,0.0,78,0.00,,,0.00,weatherlink.com 1.10,2013-11-05 12:36:00,
2013-11-05 07:51:00,33.5,28.0,30.60,ESE,116,0.0,0.0,81,0.00,,,0.00,weatherlink.com 1.10,2013-11-05 12:51:00,
2013-11-05 08:06:00,34.6,28.0,30.61,ESE,116,0.0,1.0,78,0.00,,,0.00,weatherlink.com 1.10,2013-11-05 13:06:00,
2013-11-05 08:21:00,35.7,27.0,30.61,ESE,116,0.0,0.0,71,0.00,,,0.00,weatherlink.com 1.10,2013-11-05 13:21:00,
2013-11-05 08:36:00,37.4,26.0,30.62,East,91,0.0,3.0,64,0.00,,,0.00,weatherlink.com 1.10,2013-11-05 13:36:00,
2013-11-05 08:51:00,38.1,30.0,30.62,East,91,0.0,2.0,72,0.00,,,0.00,weatherlink.com 1.10,2013-11-05 13:51:00,
2013-11-05 09:06:00,39.1,29.0,30.62,East,91,1.0,2.0,68,0.00,,,0.00,weatherlink.com 1.10,2013-11-05 14:06:00,
2013-11-05 09:21:00,40.3,30.0,30.62,East,91,0.0,2.0,66,0.00,,,0.00,weatherlink.com 1.10,2013-11-05 14:21:00,
2013-11-05 09:36:00,41.2,29.0,30.63,NW,307,2.0,2.0,61,0.00,,,0.00,weatherlink.com 1.10,2013-11-05 14:36:00,
2013-11-05 09:51:00,42.1,29.0,30.62,South,177,2.0,3.0,60,0.00,,,0.00,weatherlink.com 1.10,2013-11-05 14:51:00,
2013-11-05 10:06:00,42.9,28.0,30.62,ESE,119,0.0,3.0,57,0.00,,,0.00,weatherlink.com 1.10,2013-11-05 15:06:00,
2013-11-05 10:21:00,43.2,29.0,30.62,South,179,2.0,4.0,57,0.00,,,0.00,weatherlink.com 1.10,2013-11-05 15:21:00,
2013-11-05 10:36:00,43.4,29.0,30.61,SSE,159,2.0,5.0,57,0.00,,,0.00,weatherlink.com 1.10,2013-11-05 15:36:00,
2013-11-05 10:51:00,44.0,29.0,30.60,South,180,3.0,4.0,55,0.00,,,0.00,weatherlink.com 1.10,2013-11-05 15:51:00,
2013-11-05 11:07:00,44.9,28.0,30.60,South,178,0.0,6.0,52,0.00,,,0.00,weatherlink.com 1.10,2013-11-05 16:07:00,
2013-11-05 11:21:00,44.6,28.0,30.58,South,174,0.0,5.0,52,0.00,,,0.00,weatherlink.com 1.10,2013-11-05 16:21:00,
2013-11-05 11:36:00,44.7,28.0,30.58,SSE,160,2.0,3.0,53,0.00,,,0.00,weatherlink.com 1.10,2013-11-05 16:36:00,
2013-11-05 11:52:00,45.0,29.0,30.57,South,179,2.0,4.0,53,0.00,,,0.00,weatherlink.com 1.10,2013-11-05 16:52:00,
2013-11-05 12:07:00,45.1,29.0,30.57,South,173,1.0,3.0,54,0.00,,,0.00,weatherlink.com 1.10,2013-11-05 17:07:00,
2013-11-05 12:22:00,45.8,29.0,30.56,SE,144,1.0,4.0,53,0.00,,,0.00,weatherlink.com 1.10,2013-11-05 17:22:00,
2013-11-05 12:37:00,46.7,30.0,30.56,WNW,288,0.0,2.0,53,0.00,,,0.00,weatherlink.com 1.10,2013-11-05 17:37:00,
2013-11-05 12:52:00,47.4,31.0,30.54,South,184,0.0,3.0,54,0.00,,,0.00,weatherlink.com 1.10,2013-11-05 17:52:00,
2013-11-05 13:07:00,48.0,30.0,30.55,SSW,194,2.0,4.0,51,0.00,,,0.00,weatherlink.com 1.10,2013-11-05 18:07:00,
2013-11-05 13:22:00,48.6,32.0,30.54,West,279,0.0,3.0,53,0.00,,,0.00,weatherlink.com 1.10,2013-11-05 18:22:00,
2013-11-05 13:37:00,49.2,33.0,30.54,SE,130,2.0,3.0,53,0.00,,,0.00,weatherlink.com 1.10,2013-11-05 18:37:00,
2013-11-05 13:52:00,49.1,33.0,30.53,SW,232,0.0,3.0,54,0.00,,,0.00,weatherlink.com 1.10,2013-11-05 18:52:00,
2013-11-05 14:07:00,49.1,33.0,30.53,South,180,0.0,5.0,55,0.00,,,0.00,weatherlink.com 1.10,2013-11-05 19:07:00,
2013-11-05 14:22:00,49.5,33.0,30.52,South,179,1.0,2.0,54,0.00,,,0.00,weatherlink.com 1.10,2013-11-05 19:22:00,
2013-11-05 14:37:00,49.4,35.0,30.52,SSE,158,2.0,3.0,57,0.00,,,0.00,weatherlink.com 1.10,2013-11-05 19:37:00,
2013-11-05 14:52:00,49.3,35.0,30.52,SE,142,0.0,2.0,58,0.00,,,0.00,weatherlink.com 1.10,2013-11-05 19:52:00,
2013-11-05 15:07:00,49.2,35.0,30.52,South,186,1.0,3.0,58,0.00,,,0.00,weatherlink.com 1.10,2013-11-05 20:07:00,
2013-11-05 15:22:00,49.2,35.0,30.52,South,187,0.0,2.0,59,0.00,,,0.00,weatherlink.com 1.10,2013-11-05 20:22:00,
2013-11-05 15:37:00,49.5,36.0,30.52,South,187,1.0,2.0,59,0.00,,,0.00,weatherlink.com 1.10,2013-11-05 20:37:00,
2013-11-05 15:52:00,49.7,37.0,30.52,ESE,107,0.0,3.0,61,0.00,,,0.00,weatherlink.com 1.10,2013-11-05 20:52:00,
2013-11-05 16:07:00,49.5,37.0,30.51,ESE,107,0.0,2.0,63,0.00,,,0.00,weatherlink.com 1.10,2013-11-05 21:07:00,
2013-11-05 16:22:00,49.2,37.0,30.50,South,184,3.0,4.0,64,0.00,,,0.00,weatherlink.com 1.10,2013-11-05 21:22:00,
2013-11-05 16:37:00,49.1,38.0,30.50,South,181,0.0,2.0,66,0.00,,,0.00,weatherlink.com 1.10,2013-11-05 21:37:00,
2013-11-05 16:52:00,48.9,38.0,30.49,South,181,0.0,0.0,66,0.00,,,0.00,weatherlink.com 1.10,2013-11-05 21:52:00,
2013-11-05 17:07:00,48.4,38.0,30.49,South,181,0.0,0.0,68,0.00,,,0.00,weatherlink.com 1.10,2013-11-05 22:07:00,
2013-11-05 17:22:00,47.9,38.0,30.50,South,181,0.0,0.0,68,0.00,,,0.00,weatherlink.com 1.10,2013-11-05 22:22:00,
2013-11-05 17:37:00,47.2,38.0,30.49,South,181,0.0,0.0,70,0.00,,,0.00,weatherlink.com 1.10,2013-11-05 22:37:00,
2013-11-05 17:52:00,46.7,38.0,30.48,South,186,0.0,1.0,71,0.00,,,0.00,weatherlink.com 1.10,2013-11-05 22:52:00,
2013-11-05 18:07:00,46.3,38.0,30.49,South,186,0.0,0.0,73,0.00,,,0.00,weatherlink.com 1.10,2013-11-05 23:07:00,
2013-11-05 18:22:00,45.5,38.0,30.50,South,186,0.0,0.0,74,0.00,,,0.00,weatherlink.com 1.10,2013-11-05 23:22:00,
2013-11-05 18:37:00,45.2,38.0,30.51,South,186,0.0,1.0,76,0.00,,,0.00,weatherlink.com 1.10,2013-11-05 23:37:00,
2013-11-05 18:52:00,45.3,39.0,30.51,South,186,0.0,0.0,77,0.00,,,0.00,weatherlink.com 1.10,2013-11-05 23:52:00,
2013-11-05 19:07:00,45.4,40.0,30.50,South,186,0.0,0.0,81,0.00,,,0.00,weatherlink.com 1.10,2013-11-06 00:07:00,
2013-11-05 19:22:00,45.2,39.0,30.49,South,186,0.0,0.0,80,0.00,,,0.00,weatherlink.com 1.10,2013-11-06 00:22:00,
2013-11-05 19:37:00,45.5,40.0,30.49,South,186,0.0,1.0,81,0.00,,,0.00,weatherlink.com 1.10,2013-11-06 00:37:00,
2013-11-05 19:52:00,45.8,40.0,30.50,South,186,0.0,0.0,79,0.00,,,0.00,weatherlink.com 1.10,2013-11-06 00:52:00,
2013-11-05 20:07:00,45.6,39.0,30.49,South,186,0.0,0.0,79,0.00,,,0.00,weatherlink.com 1.10,2013-11-06 01:07:00,
2013-11-05 20:22:00,45.8,40.0,30.49,South,186,0.0,0.0,81,0.00,,,0.00,weatherlink.com 1.10,2013-11-06 01:22:00,
2013-11-05 20:37:00,46.0,40.0,30.48,South,186,0.0,0.0,80,0.00,,,0.00,weatherlink.com 1.10,2013-11-06 01:37:00,
2013-11-05 20:52:00,46.1,40.0,30.48,South,186,0.0,0.0,80,0.00,,,0.00,weatherlink.com 1.10,2013-11-06 01:52:00,
2013-11-05 21:07:00,46.3,40.0,30.48,South,186,0.0,0.0,80,0.00,,,0.00,weatherlink.com 1.10,2013-11-06 02:07:00,
2013-11-05 21:22:00,46.4,41.0,30.49,South,186,0.0,0.0,80,0.00,,,0.00,weatherlink.com 1.10,2013-11-06 02:22:00,
2013-11-05 21:37:00,46.6,40.0,30.49,South,186,0.0,1.0,79,0.00,,,0.00,weatherlink.com 1.10,2013-11-06 02:37:00,
2013-11-05 21:52:00,46.9,41.0,30.48,South,186,0.0,0.0,80,0.00,,,0.00,weatherlink.com 1.10,2013-11-06 02:52:00,
2013-11-05 22:07:00,46.9,42.0,30.47,South,186,0.0,0.0,82,0.00,,,0.00,weatherlink.com 1.10,2013-11-06 03:07:00,
2013-11-05 22:22:00,47.1,42.0,30.47,South,186,0.0,0.0,81,0.00,,,0.00,weatherlink.com 1.10,2013-11-06 03:22:00,
2013-11-05 22:37:00,47.2,42.0,30.47,South,186,0.0,0.0,82,0.00,,,0.00,weatherlink.com 1.10,2013-11-06 03:37:00,
2013-11-05 22:52:00,47.3,42.0,30.46,South,186,0.0,0.0,81,0.00,,,0.00,weatherlink.com 1.10,2013-11-06 03:52:00,
2013-11-05 23:07:00,47.4,42.0,30.45,South,186,0.0,0.0,81,0.00,,,0.00,weatherlink.com 1.10,2013-11-06 04:07:00,
2013-11-05 23:22:00,47.3,43.0,30.45,South,186,0.0,0.0,84,0.00,,,0.00,weatherlink.com 1.10,2013-11-06 04:22:00,
2013-11-05 23:37:00,47.2,42.0,30.45,South,186,0.0,0.0,82,0.00,,,0.00,weatherlink.com 1.10,2013-11-06 04:37:00,
2013-11-05 23:52:00,47.2,42.0,30.44,South,186,0.0,0.0,82,0.00,,,0.00,weatherlink.com 1.10,2013-11-06 04:52:00,